Flight Track Log - Related Links

Times and Time Zones

All times are in EDT time to prevent confusion due to time zone crossing. See the UAL495 flight status page for this flight to view local times or setup timezone preferences in your user account.

Time Position Orientation Groundspeed Altitude Reporting Facility
EDT Latitude Longitude Course Direction KTS MPH feet Rate Location/Type
Sun 12:46:28 PM 39.8167 -104.6333 75° East 199 229 6,800  Level Denver TRACON
Sun 12:47:28 PM 39.8333 -104.5500 75° East 232 267 8,100 1,500 Climbing Denver TRACON
Sun 12:48:08 PM 39.8511 -104.5078 61° Northeast 246 283 9,300 1,941 Climbing Denver Center
Sun 12:49:10 PM 39.8608 -104.4000 83° East 280 322 11,400 1,694 Climbing Denver Center
Sun 12:50:12 PM 39.8639 -104.2819 88° East 327 376 12,800 1,694 Climbing Denver Center
Sun 12:51:14 PM 39.8692 -104.1486 87° East 364 419 14,900 2,274 Climbing Denver Center
Sun 12:52:16 PM 39.8744 -104.0003 87° East 381 438 17,500 2,226 Climbing Denver Center
Sun 12:53:18 PM 39.8781 -103.8572 88° East 398 458 19,500 1,935 Climbing Denver Center
Sun 12:54:20 PM 39.8858 -103.6978 86° East 402 463 21,500 1,790 Climbing Denver Center
Sun 12:55:22 PM 39.9039 -103.5467 81° East 419 482 23,200 1,597 Climbing Denver Center
Sun 12:56:24 PM 39.9225 -103.3867 81° East 442 509 24,800 1,452 Climbing Denver Center
Sun 12:57:26 PM 39.9417 -103.2228 81° East 457 526 26,200 1,306 Climbing Denver Center
Sun 12:58:28 PM 39.9606 -103.0528 82° East 472 543 27,500 1,210 Climbing Denver Center
Sun 12:59:30 PM 39.9792 -102.8772 82° East 486 559 28,700 1,306 Climbing Denver Center
Sun 01:00:32 PM 40.0006 -102.6694 82° East 500 575 30,200 1,452 Climbing Denver Center
Sun 01:01:34 PM 40.0314 -102.5000 77° East 504 580 31,700 1,161 Climbing Denver Center
Sun 01:02:36 PM 40.0689 -102.3036 76° East 501 577 32,600 629 Climbing Denver Center
Sun 01:03:38 PM 40.0989 -102.1297 77° East 512 589 33,000 194 Climbing Denver Center
Sun 01:04:40 PM 40.1331 -101.9289 77° East 509 586 33,000  Level Denver Center
Sun 01:05:42 PM 40.1625 -101.7558 77° East 510 587 33,000 240 Level Denver Center
Sun 01:06:45 PM 40.1975 -101.5531 77° East 513 590 33,500 480 Climbing Denver Center
Sun 01:07:47 PM 40.2261 -101.3789 78° East 514 592 34,000 242 Climbing Denver Center
Sun 01:08:49 PM 40.2617 -101.1739 77° East 519 597 34,000  Level Denver Center
Sun 01:09:51 PM 40.2906 -100.9983 78° East 518 596 34,000  Level Denver Center
Sun 01:10:53 PM 40.3258 -100.7922 77° East 522 601 34,000  Level Denver Center
Sun 01:11:55 PM 40.3547 -100.6167 78° East 520 598 34,000 48 Level Denver Center
Sun 01:12:57 PM 40.3878 -100.4103 78° East 523 602 34,100 293 Climbing Denver Center
Sun 01:13:58 PM 40.4119 -100.2661 78° East 516 594 34,600 435 Climbing Denver Center
Sun 01:15:01 PM 40.4494 -100.0347 78° East 510 587 35,000 192 Climbing Denver Center
Sun 01:16:03 PM 40.4783 -99.8586 78° East 513 590 35,000  Level Denver Center
Sun 01:17:05 PM 40.5058 -99.6778 79° East 508 585 35,000  Level Denver Center
Sun 01:18:07 PM 40.5281 -99.5342 78° East 504 580 35,000  Level Denver Center
Sun 01:19:09 PM 40.5664 -99.2817 79° East 504 580 35,000  Level Denver Center
Sun 01:19:25 PM 40.5722 -99.2472 77° East 504 580 35,000  Level Minneapolis Center
Sun 01:20:27 PM 40.5983 -99.0681 79° East 503 579 35,000  Level Minneapolis Center
Sun 01:21:29 PM 40.6258 -98.8889 79° East 503 579 35,000  Level Minneapolis Center
Sun 01:22:31 PM 40.6572 -98.6736 79° East 503 579 35,000  Level Minneapolis Center
Sun 01:23:33 PM 40.6831 -98.4928 79° East 506 582 35,000  Level Minneapolis Center
Sun 01:24:35 PM 40.7097 -98.3106 79° East 508 585 35,000  Level Minneapolis Center
Sun 01:25:37 PM 40.7361 -98.1281 79° East 510 587 35,000  Level Minneapolis Center
Sun 01:26:40 PM 40.7617 -97.9439 80° East 512 589 35,000  Level Minneapolis Center
Sun 01:27:42 PM 40.7919 -97.7244 80° East 510 587 35,000  Level Minneapolis Center
Sun 01:28:44 PM 40.8175 -97.5411 80° East 510 587 35,000  Level Minneapolis Center
Sun 01:29:58 PM 40.8486 -97.3092 80° East 509 586 35,000  Level Minneapolis Center
Sun 01:31:00 PM 40.8733 -97.1250 80° East 510 587 35,000  Level Minneapolis Center
Sun 01:32:02 PM 40.8981 -96.9433 80° East 507 583 35,000  Level Minneapolis Center
Sun 01:33:04 PM 40.9217 -96.7614 80° East 505 581 35,000  Level Minneapolis Center
Sun 01:34:06 PM 40.9367 -96.5783 84° East 504 580 35,000  Level Minneapolis Center
Sun 01:35:08 PM 40.9442 -96.3950 87° East 503 579 35,000  Level Minneapolis Center
Sun 01:36:10 PM 40.9572 -96.1750 85° East 504 580 35,000  Level Minneapolis Center
Sun 01:37:12 PM 40.9694 -95.9911 85° East 507 583 35,000  Level Minneapolis Center
Sun 01:38:15 PM 40.9803 -95.8061 86° East 510 587 35,000  Level Minneapolis Center
Sun 01:39:17 PM 40.9906 -95.6200 86° East 512 589 35,000  Level Minneapolis Center
Sun 01:40:19 PM 41.0031 -95.3925 86° East 517 595 35,000  Level Minneapolis Center
Sun 01:41:21 PM 41.0128 -95.2044 86° East 516 594 35,000  Level Minneapolis Center
Sun 01:42:23 PM 41.0214 -95.0178 86° East 513 590 35,000  Level Minneapolis Center
Sun 01:43:25 PM 41.0306 -94.8286 86° East 514 592 35,000  Level Minneapolis Center
Sun 01:44:27 PM 41.0392 -94.6394 86° East 516 594 35,000  Level Minneapolis Center
Sun 01:45:29 PM 41.0475 -94.4461 87° East 515 593 35,000  Level Minneapolis Center
Sun 01:46:31 PM 41.0542 -94.2564 87° East 518 596 35,000  Level Minneapolis Center
Sun 01:47:33 PM 41.0642 -94.0289 87° East 519 597 35,000  Level Minneapolis Center
Sun 01:48:35 PM 41.0711 -93.8375 87° East 521 600 35,000  Level Minneapolis Center
Sun 01:49:37 PM 41.0800 -93.6442 86° East 524 603 35,000  Level Minneapolis Center
Sun 01:50:39 PM 41.0867 -93.4544 87° East 523 602 35,000  Level Minneapolis Center
Sun 01:51:41 PM 41.0944 -93.2614 87° East 524 603 35,000  Level Minneapolis Center
Sun 01:52:43 PM 41.1008 -93.0311 88° East 524 603 35,000  Level Minneapolis Center
Sun 01:53:45 PM 41.1078 -92.8383 87° East 524 603 35,000  Level Minneapolis Center
Sun 01:54:51 PM 41.1131 -92.6469 88° East 522 601 35,000  Level Chicago Center
Sun 01:55:53 PM 41.1186 -92.4569 88° East 519 597 35,000  Level Chicago Center
Sun 01:56:55 PM 41.1231 -92.2664 88° East 519 597 35,000  Level Chicago Center
Sun 01:57:57 PM 41.1281 -92.0425 88° East 511 588 35,000  Level Chicago Center
Sun 01:58:59 PM 41.1336 -91.8539 88° East 513 590 35,000  Level Chicago Center
Sun 02:00:01 PM 41.1367 -91.6647 89° East 516 594 35,000  Level Chicago Center
Sun 02:01:03 PM 41.1408 -91.4778 88° East 515 593 35,000  Level Chicago Center
Sun 02:02:05 PM 41.1444 -91.2869 88° East 515 593 35,000  Level Chicago Center
Sun 02:03:07 PM 41.1481 -91.0583 89° East 517 595 35,000  Level Chicago Center
Sun 02:04:09 PM 41.1508 -90.8664 89° East 519 597 35,000  Level Chicago Center
Sun 02:05:11 PM 41.1531 -90.6756 89° East 516 594 35,000  Level Chicago Center
Sun 02:06:13 PM 41.1558 -90.4831 89° East 520 598 35,000  Level Chicago Center
Sun 02:07:15 PM 41.1572 -90.2928 89° East 516 594 35,000  Level Chicago Center
Sun 02:08:17 PM 41.1583 -90.0997 89° East 518 596 35,000  Level Chicago Center
Sun 02:09:19 PM 41.1597 -89.9086 89° East 514 592 35,000  Level Chicago Center
Sun 02:10:21 PM 41.1611 -89.7150 89° East 517 595 35,000  Level Chicago Center
Sun 02:11:23 PM 41.1469 -89.4864 95° East 511 588 35,000  Level Chicago Center
Sun 02:12:25 PM 41.1214 -89.2981 100° East 515 593 35,000  Level Chicago Center
Sun 02:13:27 PM 41.0986 -89.1286 100° East 511 588 35,000  Level Chicago Center
Sun 02:14:29 PM 41.0731 -88.9456 100° East 510 587 35,000  Level Chicago Center
Sun 02:15:31 PM 41.0417 -88.7258 101° East 513 590 35,000  Level Chicago Center
Sun 02:16:33 PM 41.0167 -88.5436 100° East 510 587 35,000  Level Chicago Center
Sun 02:17:35 PM 40.9911 -88.3633 101° East 507 583 35,000  Level Chicago Center
Sun 02:18:37 PM 40.9650 -88.1806 101° East 514 592 35,000  Level Chicago Center
Sun 02:19:39 PM 40.9333 -87.9606 101° East 515 593 35,000  Level Chicago Center
Sun 02:20:41 PM 40.9058 -87.7781 101° East 515 593 35,000  Level Chicago Center
Sun 02:21:43 PM 40.8794 -87.5961 101° East 513 590 35,000  Level Chicago Center
Sun 02:22:45 PM 40.8528 -87.4122 101° East 512 589 35,000 339 Level Chicago Center
Sun 02:23:47 PM 40.8233 -87.2325 102° East 508 585 35,700 968 Climbing Chicago Center
Sun 02:24:49 PM 40.7886 -87.0125 102° East 512 589 37,000 629 Climbing Chicago Center
Sun 02:25:51 PM 40.7603 -86.8297 102° East 512 589 37,000  Level Chicago Center
Sun 02:26:53 PM 40.7317 -86.6464 102° East 514 592 37,000  Level Chicago Center
Sun 02:27:55 PM 40.7017 -86.4581 102° East 522 601 37,000  Level Chicago Center
Sun 02:28:57 PM 40.6714 -86.2572 101° East 522 601 37,000  Level Chicago Center
Sun 02:29:59 PM 40.6403 -86.0678 102° East 525 604 37,000  Level Chicago Center
Sun 02:31:01 PM 40.6100 -85.8803 102° East 524 603 37,000  Level Chicago Center
Sun 02:32:04 PM 40.5794 -85.6939 102° East 522 601 37,000  Level Chicago Center
Sun 02:33:06 PM 40.5431 -85.4736 102° East 516 594 37,000  Level Chicago Center
Sun 02:34:08 PM 40.5111 -85.2900 103° East 514 592 37,000  Level Chicago Center
Sun 02:35:10 PM 40.4792 -85.1064 103° East 517 595 37,000  Level Chicago Center
Sun 02:35:25 PM 40.4703 -85.0686 107° East 514 592 37,000 -78 Level Indianapolis Center
Sun 02:36:27 PM 40.4375 -84.8789 103° East 516 594 36,900  Descending Indianapolis Center
Sun 02:37:29 PM 40.4072 -84.6939 102° East 515 593 37,000 48 Climbing Indianapolis Center
Sun 02:38:31 PM 40.3858 -84.4736 97° East 517 595 37,000  Level Indianapolis Center
Sun 02:39:33 PM 40.3689 -84.2844 97° East 518 596 37,000  Level Indianapolis Center
Sun 02:40:35 PM 40.3539 -84.0947 96° East 518 596 37,000  Level Indianapolis Center
Sun 02:41:37 PM 40.3361 -83.9056 97° East 518 596 37,000 -48 Level Indianapolis Center
Sun 02:42:39 PM 40.3186 -83.7167 97° East 515 593 36,900  Descending Indianapolis Center
Sun 02:43:41 PM 40.3019 -83.5275 97° East 515 593 37,000  Climbing Indianapolis Center
Sun 02:44:43 PM 40.2842 -83.3389 97° East 515 593 36,900  Descending Indianapolis Center
Sun 02:45:45 PM 40.2672 -83.1508 97° East 512 589 37,000 48 Climbing Indianapolis Center
Sun 02:46:47 PM 40.2486 -82.9650 97° East 508 585 37,000 -49 Level Indianapolis Center
Sun 02:47:48 PM 40.2214 -82.7839 101° East 502 578 36,900 -49 Descending Indianapolis Center
Sun 02:48:50 PM 40.1789 -82.5806 105° East 494 568 36,900 48 Level Indianapolis Center
Sun 02:49:52 PM 40.1408 -82.4061 106° East 494 568 37,000 48 Climbing Indianapolis Center
Sun 02:50:54 PM 40.1042 -82.2336 105° East 489 563 37,000  Level Indianapolis Center
Sun 02:51:56 PM 40.0664 -82.0603 106° East 491 565 37,000  Level Indianapolis Center
Sun 02:52:58 PM 40.0275 -81.8878 106° East 491 565 37,000  Level Indianapolis Center
Sun 02:54:00 PM 39.9886 -81.7147 106° East 494 568 37,000  Level Indianapolis Center
Sun 02:55:02 PM 39.9483 -81.5383 107° East 499 574 37,000  Level Indianapolis Center
Sun 02:56:04 PM 39.9100 -81.3650 106° East 501 577 37,000  Level Indianapolis Center
Sun 02:57:06 PM 39.8697 -81.1914 107° East 500 575 37,000  Level Indianapolis Center
Sun 02:58:07 PM 39.8214 -80.9831 107° East 500 575 37,000 -537 Level Indianapolis Center
Sun 02:59:09 PM 39.7806 -80.8106 107° East 499 574 35,900 -1,065 Descending Indianapolis Center
Sun 03:00:11 PM 39.7400 -80.6342 107° East 507 583 34,800 -940 Descending Indianapolis Center
Sun 03:00:32 PM 39.7317 -80.5886 103° East 497 572 34,600 -871 Descending Cleveland Center
Sun 03:02:15 PM 39.6567 -80.2769 107° East 520 598 33,000 -727 Descending Indianapolis Center
Sun 03:03:17 PM 39.6144 -80.0967 107° East 521 600 32,600 -968 Descending Indianapolis Center
Sun 03:04:19 PM 39.5731 -79.9228 107° East 507 583 31,000 -1,511 Descending Indianapolis Center
Sun 03:05:32 PM 39.5347 -79.7194 104° East 493 567 29,200 -1,701 Descending Washington Center
Sun 03:06:33 PM 39.5067 -79.5617 103° East 474 545 27,200 -1,091 Descending Washington Center
Sun 03:07:33 PM 39.4783 -79.4014 103° East 462 532 27,000 -400 Descending Washington Center
Sun 03:08:33 PM 39.4444 -79.2222 104° East 457 526 26,400 -1,450 Descending Washington Center
Sun 03:09:33 PM 39.4156 -79.0678 104° East 457 526 24,100 -2,593 Descending Washington Center
Sun 03:10:31 PM 39.3889 -78.9108 102° East 452 520 21,300 -2,824 Descending Washington Center
Sun 03:11:32 PM 39.3614 -78.7619 103° East 447 514 18,500 -2,705 Descending Washington Center
Sun 03:12:33 PM 39.3358 -78.6211 103° East 425 489 15,800 -2,571 Descending Washington Center
Sun 03:13:31 PM 39.3103 -78.4833 103° East 405 466 13,400 -2,067 Descending Washington Center
Sun 03:14:32 PM 39.2800 -78.3533 107° East 388 447 11,700 -1,230 Descending Washington Center
Sun 03:15:33 PM 39.2239 -78.2439 123° Southeast 373 429 10,900 -1,109 Descending Washington Center
Sun 03:16:31 PM 39.1719 -78.1458 124° Southeast 352 405 9,500 -1,627 Descending Washington Center
Sun 03:17:31 PM 39.1197 -78.0503 125° Southeast 337 388 7,700 -1,300 Descending Washington Center
Sun 03:18:31 PM 39.0694 -77.9550 124° Southeast 331 381 6,900 -744 Descending Washington Center
Sun 03:19:32 PM 39.0211 -77.8625 124° Southeast 326 375 6,200 -446 Descending Washington Center
Sun 03:20:32 PM 38.9769 -77.7811 125° Southeast 313 360 6,000 -99 Descending Washington Center
Sun 03:21:33 PM 38.9561 -77.6658 103° East 303 349 6,000  Level Washington Center
Sun 03:22:16 PM 38.9833 -77.6000 62° Northeast 286 329 6,000 -176 Level Potomac TRACON
Sun 03:23:15 PM 39.0333 -77.5833 15° North 205 236 5,700 -504 Descending Potomac TRACON
Sun 03:24:15 PM 39.1000 -77.5833 360° North 194 223 5,000 -694 Descending Potomac TRACON
Sun 03:25:16 PM 39.1500 -77.5667 14° North 195 224 4,300 -893 Descending Potomac TRACON
Sun 03:26:16 PM 39.1833 -77.5167 49° Northeast 223 257 3,200 -650 Descending Potomac TRACON
Sun 03:27:16 PM 39.1667 -77.4500 108° East 213 245 3,000 -200 Descending Potomac TRACON

Login

Don't have an account? Register now (free) for customized features, flight alerts, and more!